Time;durP1;ratioP1;P1;durP2;ratioP2;P2;SDS_P1;SDS_P2;PMS_P1;PMS_P2;Temp;Humidity;BMP_temperature;BMP_pressure;BME280_temperature;BME280_humidity;BME280_pressure;Samples;Min_cycle;Max_cycle;Signal;HPM_P1;HPM_P2
2022/12/30 00:00:40;;;;;;;2.83;0.70;;;7.60;94.10;;;7.16;85.99;97726.28;5081188;28;20459;-81
2022/12/30 00:03:07;;;;;;;2.60;1.10;;;7.60;94.00;;;7.07;86.77;97723.78;5093831;28;20459;-82
2022/12/30 00:05:34;;;;;;;3.50;1.30;;;7.50;94.60;;;7.01;86.37;97723.75;5096271;28;20508;-79
2022/12/30 00:08:01;;;;;;;3.50;0.93;;;7.50;94.30;;;6.75;85.16;97698.41;5102466;28;20473;-82
2022/12/30 00:10:29;;;;;;;1.60;1.00;;;7.50;93.50;;;6.89;86.38;97736.88;5091881;28;20952;-81
2022/12/30 00:35:13;;;;;;;1.80;0.73;;;7.20;95.40;;;6.76;88.05;97754.59;5095049;28;20445;-80
2022/12/30 00:37:40;;;;;;;1.60;0.80;;;7.20;96.30;;;6.71;87.85;97745.47;5078638;28;20511;-81
2022/12/30 00:40:09;;;;;;;1.77;0.80;;;7.20;95.80;;;6.69;87.76;97739.47;5071804;28;20458;-79
2022/12/30 00:45:24;;;;;;;3.50;1.60;;;7.20;96.50;;;6.86;87.88;97758.78;5086114;28;20471;-81
2022/12/30 00:47:52;;;;;;;1.67;0.87;;;7.20;96.70;;;6.88;87.19;97737.91;5085406;28;20464;-82
2022/12/30 00:58:34;;;;;;;3.80;0.80;;;7.10;96.70;;;6.83;88.15;97754.63;5069611;28;20690;-81
2022/12/30 01:01:02;;;;;;;1.60;0.63;;;7.10;97.10;;;6.70;87.87;97744.63;5074938;28;20461;-81
2022/12/30 01:03:29;;;;;;;0.70;0.50;;;7.10;96.90;;;6.72;88.26;97757.88;5091842;28;20447;-81
2022/12/30 01:05:57;;;;;;;1.90;0.53;;;7.10;97.00;;;6.79;87.76;97769.47;5089101;28;20472;-81
2022/12/30 01:08:24;;;;;;;1.40;0.80;;;7.10;97.30;;;6.70;88.29;97754.56;5059398;28;20494;-81
2022/12/30 01:10:51;;;;;;;1.17;0.90;;;7.10;97.60;;;6.72;88.25;97764.06;5089317;28;20469;-81
2022/12/30 01:13:19;;;;;;;0.83;0.77;;;7.20;97.40;;;6.70;88.72;97760.75;5091509;28;20457;-80
2022/12/30 01:15:46;;;;;;;1.87;0.80;;;7.10;97.30;;;5.73;88.24;97615.56;5085631;28;20445;-81
2022/12/30 01:18:14;;;;;;;1.83;1.00;;;7.10;97.70;;;6.50;88.94;97765.97;5056549;28;20460;-80
2022/12/30 01:20:42;;;;;;;2.50;0.80;;;7.00;97.60;;;6.52;89.18;97786.22;5083143;28;20497;-80
2022/12/30 01:23:09;;;;;;;1.80;0.63;;;7.00;97.30;;;6.38;89.01;97754.94;5093401;28;20456;-80
2022/12/30 01:25:40;;;;;;;2.10;0.93;;;7.00;98.10;;;6.68;89.00;97794.19;5089731;28;20475;-80
2022/12/30 01:28:07;;;;;;;1.00;0.60;;;7.00;98.70;;;6.23;89.03;97738.97;5088271;28;20508;-84
2022/12/30 01:30:35;;;;;;;1.20;0.50;;;7.00;98.30;;;6.05;89.19;97715.28;5084276;28;20460;-81
2022/12/30 01:33:02;;;;;;;1.03;0.70;;;7.00;98.70;;;6.52;89.69;97796.13;5091441;28;20478;-81
2022/12/30 01:35:30;;;;;;;1.03;0.87;;;6.90;99.30;;;6.66;89.60;97802.44;5074928;28;20464;-82
2022/12/30 01:37:58;;;;;;;1.20;1.00;;;6.90;99.70;;;6.52;89.43;97790.75;5086247;28;20460;-82
2022/12/30 01:40:25;;;;;;;2.87;1.20;;;6.90;99.90;;;6.48;89.44;97808.28;5082368;28;20548;-80
2022/12/30 01:42:52;;;;;;;1.63;0.90;;;6.80;99.70;;;6.43;89.95;97814.22;5072148;28;20555;-81
2022/12/30 01:45:23;;;;;;;1.07;0.97;;;6.80;99.90;;;6.38;89.48;97808.63;5072822;28;20461;-78
2022/12/30 01:47:55;;;;;;;1.40;1.03;;;6.70;99.90;;;6.11;90.33;97800.31;5080301;28;20486;-77
2022/12/30 01:50:33;;;;;;;4.63;0.90;;;6.60;99.90;;;6.16;90.76;97802.44;5085806;28;20560;-79
2022/12/30 01:53:03;;;;;;;1.30;0.73;;;6.60;99.90;;;6.13;90.57;97817.06;5087609;28;20436;-79
2022/12/30 01:55:35;;;;;;;1.90;0.70;;;6.60;99.90;;;6.17;91.07;97837.13;5085351;28;20528;-77
2022/12/30 01:58:07;;;;;;;0.60;0.57;;;6.50;99.90;;;6.25;90.48;97844.22;5091825;28;20874;-79
2022/12/30 02:00:34;;;;;;;1.97;0.87;;;6.50;99.90;;;6.20;90.76;97836.75;5091361;28;20444;-82
2022/12/30 02:03:02;;;;;;;3.37;1.00;;;6.50;99.90;;;5.81;91.14;97809.31;5089476;28;20469;-79
2022/12/30 02:05:34;;;;;;;0.83;0.67;;;6.50;99.90;;;6.26;91.29;97855.78;5068730;28;20785;-79
2022/12/30 02:08:07;;;;;;;2.07;0.90;;;6.50;99.90;;;6.31;91.31;97850.69;5072570;28;20470;-79
2022/12/30 02:10:39;;;;;;;1.97;0.60;;;6.50;99.90;;;6.13;91.07;97835.03;5091033;28;21023;-79
2022/12/30 02:13:06;;;;;;;2.23;0.90;;;6.50;99.90;;;6.02;91.18;97817.59;5091602;28;20463;-78
2022/12/30 02:15:51;;;;;;;2.30;1.00;;;6.60;99.90;;;6.22;91.09;97864.22;5089223;28;20433;-81
2022/12/30 02:18:26;;;;;;;2.00;0.90;;;6.60;99.90;;;6.05;91.09;97834.09;5091595;28;20442;-81
2022/12/30 02:21:52;;;;;;;1.53;0.90;;;6.60;99.90;;;6.23;90.36;97841.72;5073475;28;20431;-79
2022/12/30 02:25:05;;;;;;;1.23;1.00;;;6.70;99.90;;;6.25;90.87;97868.38;5034745;28;20480;-80
2022/12/30 02:28:11;;;;;;;2.30;1.30;;;6.60;99.90;;;6.12;91.09;97855.63;5077419;28;20969;-80
2022/12/30 02:31:09;;;;;;;1.77;0.80;;;6.60;99.90;;;6.15;91.06;97871.38;5084778;28;20459;-80
2022/12/30 02:33:44;;;;;;;1.37;1.23;;;6.50;99.90;;;5.91;91.70;97862.63;5069485;28;20453;-79
2022/12/30 02:36:20;;;;;;;3.03;1.33;;;6.50;99.90;;;6.07;91.68;97868.81;5092970;28;20443;-79
2022/12/30 02:38:54;;;;;;;2.93;1.10;;;6.40;99.90;;;5.86;91.22;97840.06;5090639;28;20455;-83
2022/12/30 02:44:38;;;;;;;2.40;1.60;;;6.40;99.90;;;6.06;91.38;97877.88;5030326;28;20460;-82
2022/12/30 02:47:15;;;;;;;1.63;0.97;;;6.40;99.90;;;5.87;92.17;97873.91;5066154;28;20474;-81
2022/12/30 02:52:14;;;;;;;3.03;0.83;;;6.30;99.90;;;5.93;91.76;97876.66;5072523;28;20449;-81
2022/12/30 02:52:35;;;;;;;1.67;0.80;;;6.30;99.90;;;5.76;92.87;97872.56;5086794;28;20453;-82
2022/12/30 02:55:03;;;;;;;2.30;0.80;;;6.20;99.90;;;5.78;92.72;97866.00;5084607;28;20734;-81
2022/12/30 02:57:33;;;;;;;1.83;0.80;;;6.20;99.90;;;5.63;92.58;97847.25;5067465;28;20816;-81
2022/12/30 03:06:41;;;;;;;2.87;1.10;;;6.00;99.90;;;5.61;92.87;97897.53;5087231;28;20520;-81
2022/12/30 03:09:19;;;;;;;1.67;1.27;;;5.90;99.90;;;5.09;93.73;97833.16;5082236;28;20457;-81
2022/12/30 03:11:55;;;;;;;2.10;1.40;;;5.90;99.90;;;5.20;94.10;97858.66;5088454;28;20462;-79
2022/12/30 03:14:29;;;;;;;3.70;1.30;;;5.90;99.90;;;5.09;93.59;97833.16;5083372;28;20451;-82
2022/12/30 03:17:02;;;;;;;4.37;1.27;;;5.90;99.90;;;5.54;93.96;97893.94;5088043;28;20522;-81
2022/12/30 03:19:39;;;;;;;4.10;1.67;;;5.90;99.90;;;5.48;93.73;97898.19;5073865;28;20454;-80
2022/12/30 03:27:03;;;;;;;1.00;0.90;;;5.80;99.90;;;5.46;93.64;97888.66;5091301;28;20466;-80
2022/12/30 03:27:46;;;;;;;2.43;1.30;;;5.70;99.90;;;5.30;93.96;97909.28;5066377;28;20473;-80
2022/12/30 03:30:15;;;;;;;2.63;1.60;;;5.60;99.90;;;5.25;94.25;97914.38;5086934;28;20456;-81
2022/12/30 03:32:43;;;;;;;3.93;1.27;;;5.70;99.90;;;5.17;94.32;97891.16;5070581;28;20440;-80
2022/12/30 03:35:12;;;;;;;3.77;1.40;;;5.70;99.90;;;5.15;93.42;97887.81;5071314;28;20451;-80
2022/12/30 03:37:44;;;;;;;4.60;1.70;;;5.70;99.90;;;4.79;94.15;97846.53;5088197;28;21023;-82
2022/12/30 03:40:17;;;;;;;3.17;1.83;;;5.60;99.90;;;5.28;94.32;97911.31;5093013;28;20940;-82
2022/12/30 03:42:47;;;;;;;2.73;1.37;;;5.60;99.90;;;5.39;93.75;97916.22;5083325;28;20467;-80
2022/12/30 03:45:15;;;;;;;4.03;1.77;;;5.60;99.90;;;5.23;93.92;97884.22;5091399;28;20966;-79
2022/12/30 03:47:43;;;;;;;3.03;1.50;;;5.70;99.90;;;5.58;93.86;97923.88;5084395;28;20475;-79
2022/12/30 03:50:12;;;;;;;2.13;1.87;;;5.80;99.90;;;5.34;93.79;97858.84;5066421;28;20437;-80
2022/12/30 03:52:40;;;;;;;4.67;1.93;;;5.90;99.90;;;5.28;93.04;97849.69;5084427;28;20527;-81
2022/12/30 03:55:08;;;;;;;3.63;1.80;;;6.00;99.90;;;5.76;92.18;97931.53;5088100;28;20470;-80
2022/12/30 03:57:36;;;;;;;4.57;2.03;;;6.10;99.90;;;5.98;91.75;97918.16;5089170;28;20533;-80
2022/12/30 04:00:06;;;;;;;2.27;1.90;;;6.30;99.90;;;6.05;91.17;97932.53;5087526;28;20475;-80
2022/12/30 04:02:33;;;;;;;1.40;1.30;;;6.30;99.90;;;5.95;91.74;97919.41;5061761;28;20436;-80
2022/12/30 04:05:00;;;;;;;2.30;1.90;;;6.30;99.90;;;6.17;91.20;97920.31;5091307;28;20459;-81
2022/12/30 04:07:29;;;;;;;2.67;1.67;;;6.40;99.90;;;6.17;90.56;97922.13;5077484;28;20472;-80
2022/12/30 04:09:56;;;;;;;7.30;1.90;;;6.50;99.90;;;6.29;90.02;97930.50;5079971;28;20601;-80
2022/12/30 04:12:24;;;;;;;3.33;1.57;;;6.50;99.90;;;6.31;89.55;97925.81;5100122;28;20480;-80
2022/12/30 04:14:51;;;;;;;2.50;1.40;;;6.50;99.90;;;6.15;89.84;97922.34;5092362;28;20484;-81
2022/12/30 04:17:18;;;;;;;2.97;1.70;;;6.50;99.90;;;5.98;89.85;97902.91;5083624;28;20451;-81
2022/12/30 04:19:45;;;;;;;2.13;1.70;;;6.50;99.90;;;5.98;90.18;97912.81;5077319;28;20443;-81
2022/12/30 04:22:13;;;;;;;4.47;1.70;;;6.40;99.90;;;6.05;89.96;97935.22;5057740;28;20793;-81
2022/12/30 04:24:41;;;;;;;4.53;1.80;;;6.30;99.90;;;6.00;89.61;97951.03;5091828;28;20459;-79
2022/12/30 04:27:08;;;;;;;8.67;1.80;;;6.20;99.90;;;5.81;90.14;97942.50;5067747;28;20785;-80
2022/12/30 04:29:36;;;;;;;2.40;1.93;;;6.10;99.90;;;5.89;90.25;97939.75;5067273;28;20448;-83
2022/12/30 04:32:03;;;;;;;4.23;2.60;;;6.00;99.90;;;6.10;90.45;97954.25;5079336;28;20459;-82
2022/12/30 04:34:30;;;;;;;2.73;1.87;;;6.20;99.90;;;5.95;90.62;97920.22;5075404;28;20448;-81
2022/12/30 04:36:57;;;;;;;4.30;2.13;;;6.20;99.90;;;6.12;90.24;97946.84;5093787;28;20457;-80
2022/12/30 04:39:25;;;;;;;5.13;2.30;;;6.20;99.90;;;6.11;90.07;97947.88;5097484;28;20459;-82
2022/12/30 04:41:53;;;;;;;4.40;2.40;;;6.20;99.90;;;5.99;90.70;97947.50;5069370;28;20445;-81
2022/12/30 04:44:21;;;;;;;4.47;1.97;;;6.20;99.90;;;5.93;91.00;97975.88;5069243;28;20500;-80
2022/12/30 04:46:48;;;;;;;4.77;2.03;;;6.10;99.90;;;5.96;90.31;97972.81;5089469;28;20484;-81
2022/12/30 04:49:15;;;;;;;2.80;2.00;;;6.10;99.90;;;5.87;91.05;97971.28;5091167;28;20478;-80
2022/12/30 04:51:42;;;;;;;2.33;1.83;;;6.10;99.90;;;5.76;90.48;97974.44;5071140;28;20535;-81
2022/12/30 04:54:10;;;;;;;4.03;2.20;;;5.90;99.90;;;5.65;91.21;97968.50;5091214;28;20534;-81
2022/12/30 04:56:37;;;;;;;3.27;3.00;;;5.80;99.90;;;5.53;90.62;97973.50;5081329;28;20440;-83
2022/12/30 04:59:05;;;;;;;4.37;2.50;;;5.60;99.90;;;5.38;90.59;97968.16;5097819;28;20464;-81
2022/12/30 05:01:33;;;;;;;3.07;2.47;;;5.60;99.90;;;5.12;92.68;97935.59;5095806;28;20436;-80
2022/12/30 05:04:00;;;;;;;3.63;2.43;;;5.50;99.90;;;5.23;92.65;97959.22;5076428;28;20444;-79
2022/12/30 05:06:28;;;;;;;2.80;2.10;;;5.40;99.90;;;5.17;92.23;97970.69;5087413;28;20464;-83
2022/12/30 05:08:55;;;;;;;4.40;1.93;;;5.30;99.90;;;4.95;92.76;97947.28;5083295;28;20471;-82
2022/12/30 05:11:22;;;;;;;3.63;2.30;;;5.10;99.90;;;5.03;93.31;97985.72;5091277;28;20456;-82
2022/12/30 05:13:49;;;;;;;3.77;2.20;;;5.10;99.90;;;4.77;93.64;97934.19;5097061;28;20460;-84
2022/12/30 05:16:18;;;;;;;5.47;2.20;;;5.10;99.90;;;4.28;93.38;97860.53;5062442;28;20448;-81
2022/12/30 05:18:45;;;;;;;8.40;2.20;;;5.10;99.90;;;4.96;93.89;97958.81;5088568;28;20454;-80
2022/12/30 05:21:13;;;;;;;4.33;1.83;;;5.20;99.90;;;4.99;93.92;97974.53;5079478;28;20440;-79
2022/12/30 05:26:25;;;;;;;4.13;2.33;;;5.10;99.90;;;4.98;93.53;97962.16;5079765;28;20460;-79
2022/12/30 05:28:54;;;;;;;5.20;2.50;;;5.20;99.90;;;5.02;94.52;97976.84;5093953;28;20565;-78
2022/12/30 05:31:22;;;;;;;7.33;2.47;;;5.10;99.90;;;5.06;94.18;97967.41;5073861;28;20439;-79
2022/12/30 05:33:49;;;;;;;6.30;2.63;;;5.20;99.90;;;5.08;94.09;97962.75;5073316;28;20625;-82
2022/12/30 05:36:17;;;;;;;5.57;2.63;;;5.20;99.90;;;5.03;93.81;97964.28;5095002;28;20459;-80
2022/12/30 05:38:44;;;;;;;3.27;2.27;;;5.20;99.90;;;4.97;94.49;97963.16;5090768;28;20459;-79
2022/12/30 05:41:12;;;;;;;2.83;2.07;;;5.20;99.90;;;4.91;94.40;97971.91;5088659;28;20920;-82
2022/12/30 05:43:39;;;;;;;3.97;2.60;;;5.20;99.90;;;4.84;94.37;97963.75;5092115;28;20860;-80
2022/12/30 05:46:07;;;;;;;4.57;2.33;;;5.10;99.90;;;4.73;94.25;97959.66;5069579;28;20843;-82
2022/12/30 05:48:35;;;;;;;2.90;2.37;;;5.00;99.90;;;4.76;93.64;97990.59;5090148;28;20547;-80
2022/12/30 05:51:03;;;;;;;3.20;2.50;;;4.80;99.90;;;4.74;94.08;97985.41;5084892;28;20460;-82
2022/12/30 05:53:31;;;;;;;5.53;2.80;;;4.80;99.90;;;4.74;94.25;97992.63;5091203;28;20544;-80
2022/12/30 05:55:59;;;;;;;4.00;2.43;;;4.90;99.90;;;4.64;94.14;98003.56;5089574;28;20451;-81
2022/12/30 05:58:27;;;;;;;3.83;2.13;;;4.80;99.90;;;4.55;94.00;97992.09;5087962;28;20452;-82
2022/12/30 06:00:56;;;;;;;3.93;2.30;;;4.80;99.90;;;4.38;94.20;97983.34;5085727;28;20840;-82
2022/12/30 06:03:24;;;;;;;4.23;2.50;;;4.70;99.90;;;3.71;94.21;97862.53;5066070;28;20505;-81
2022/12/30 06:05:57;;;;;;;7.90;2.70;;;4.70;99.90;;;4.53;94.04;98002.13;5087224;28;20481;-81
2022/12/30 06:08:24;;;;;;;4.70;2.63;;;4.70;99.90;;;4.39;93.78;98017.91;5065562;28;20677;-83
2022/12/30 06:10:52;;;;;;;3.20;2.53;;;4.60;99.90;;;4.44;94.02;98020.06;5065873;28;20453;-81
2022/12/30 06:13:19;;;;;;;6.93;2.53;;;4.60;99.90;;;4.41;94.13;98020.44;5066378;28;20447;-82
2022/12/30 06:15:47;;;;;;;4.20;3.00;;;4.60;99.90;;;4.21;94.17;97994.13;5068518;28;20450;-84
2022/12/30 06:18:14;;;;;;;2.90;2.17;;;4.50;99.90;;;4.10;94.95;97991.84;5085197;28;20443;-82
2022/12/30 06:20:42;;;;;;;6.60;2.57;;;4.50;99.90;;;4.33;95.07;98017.81;5091718;28;20851;-79
2022/12/30 06:23:10;;;;;;;2.77;1.97;;;4.40;99.90;;;4.16;94.27;97988.44;5071333;28;21234;-83
2022/12/30 06:25:37;;;;;;;3.13;2.33;;;4.40;99.90;;;4.31;93.36;98003.75;5072088;28;20456;-80
2022/12/30 06:28:06;;;;;;;5.90;2.83;;;4.40;99.90;;;4.16;94.68;97987.63;5075239;28;20538;-85
2022/12/30 06:30:33;;;;;;;3.60;2.63;;;4.40;99.90;;;4.22;95.75;98003.81;5091286;28;20807;-83
2022/12/30 06:33:00;;;;;;;3.20;2.70;;;4.50;99.90;;;4.00;95.67;97985.84;5068898;28;20436;-83
2022/12/30 06:35:28;;;;;;;4.03;2.60;;;4.40;99.90;;;4.12;95.18;97989.81;5089106;28;20447;-84
2022/12/30 06:37:55;;;;;;;5.50;2.20;;;4.40;99.90;;;4.10;95.38;97997.19;5090239;28;20443;-87
2022/12/30 06:40:23;;;;;;;6.30;2.30;;;4.40;99.90;;;4.14;95.35;98003.84;5086526;28;20464;-83
2022/12/30 06:42:51;;;;;;;6.53;2.80;;;4.40;99.90;;;4.16;95.67;98007.16;5082027;28;20999;-81
2022/12/30 06:45:18;;;;;;;6.80;2.50;;;4.30;99.90;;;4.05;94.37;97988.84;5069055;28;20853;-84
2022/12/30 06:47:45;;;;;;;3.93;2.63;;;4.30;99.90;;;4.11;96.63;98020.25;5067157;28;20449;-83
2022/12/30 06:50:13;;;;;;;6.53;3.33;;;4.30;99.90;;;4.18;95.83;98021.22;5088619;28;20494;-83
2022/12/30 06:52:40;;;;;;;3.70;2.93;;;4.40;99.90;;;4.10;95.05;98018.56;5086262;28;20501;-82
2022/12/30 06:55:08;;;;;;;5.53;4.10;;;4.30;99.90;;;3.83;95.13;97964.53;5090149;28;20476;-79
2022/12/30 06:57:37;;;;;;;4.97;3.60;;;4.20;99.90;;;3.88;96.75;97998.78;5088012;28;20821;-78
2022/12/30 07:00:07;;;;;;;7.80;3.00;;;4.30;99.90;;;3.97;96.13;98006.59;5070677;28;20432;-78
2022/12/30 07:02:35;;;;;;;6.63;3.20;;;4.30;99.90;;;3.72;96.46;97984.47;5067369;28;20515;-80
2022/12/30 07:05:02;;;;;;;5.97;3.33;;;4.30;99.90;;;3.77;97.22;98008.81;5070302;28;20452;-82
2022/12/30 07:07:29;;;;;;;3.80;3.30;;;4.30;99.90;;;3.89;98.20;98033.38;5084468;28;20483;-80
2022/12/30 07:09:56;;;;;;;4.53;2.70;;;4.30;99.90;;;3.82;97.66;98016.34;5087993;28;20857;-81
2022/12/30 07:12:24;;;;;;;4.30;2.53;;;4.30;99.90;;;3.96;97.10;98034.31;5083073;28;20466;-81
2022/12/30 07:14:52;;;;;;;3.93;3.23;;;4.30;99.90;;;4.01;95.99;98035.63;5085556;28;20505;-82
2022/12/30 07:17:20;;;;;;;4.07;3.53;;;4.30;99.90;;;3.65;96.52;97995.00;5089804;28;20467;-84
2022/12/30 07:19:47;;;;;;;7.90;3.57;;;4.30;99.90;;;3.90;96.62;98020.81;5091975;28;20471;-82
2022/12/30 07:22:15;;;;;;;4.27;3.53;;;4.30;99.90;;;3.91;96.48;98025.16;5097699;28;20544;-82
2022/12/30 07:24:43;;;;;;;6.10;3.50;;;4.20;99.90;;;3.95;96.38;98026.50;5081664;28;20654;-75
2022/12/30 07:27:11;;;;;;;5.93;4.13;;;4.30;99.90;;;3.97;96.29;98019.97;5067096;28;20482;-76
2022/12/30 07:29:39;;;;;;;5.50;3.83;;;4.30;99.90;;;4.01;96.76;98017.78;5073393;28;20536;-77
2022/12/30 07:32:09;;;;;;;8.27;4.43;;;4.40;99.90;;;4.15;95.62;98013.53;5067493;28;20450;-77
2022/12/30 07:34:37;;;;;;;4.50;4.10;;;4.40;99.90;;;4.15;95.42;98026.06;5064023;28;20541;-75
2022/12/30 07:37:05;;;;;;;8.27;4.63;;;4.40;99.90;;;4.04;96.18;98025.44;5087920;28;20453;-75
2022/12/30 07:39:33;;;;;;;7.90;4.00;;;4.40;99.90;;;4.04;96.43;98019.28;5057383;28;20448;-76
2022/12/30 07:42:00;;;;;;;5.23;3.50;;;4.40;99.90;;;4.15;95.99;98026.91;5061512;28;20864;-77
2022/12/30 07:44:27;;;;;;;9.00;5.33;;;4.40;99.90;;;4.22;95.80;98033.22;5081192;28;20462;-79
2022/12/30 07:46:55;;;;;;;6.93;4.33;;;4.50;99.90;;;4.18;95.83;98025.72;5078068;28;20459;-77
2022/12/30 07:49:24;;;;;;;6.53;4.90;;;4.50;99.90;;;4.19;96.64;98036.25;5082242;28;20570;-78
2022/12/30 07:51:51;;;;;;;7.77;4.87;;;4.50;99.90;;;4.29;95.98;98038.72;5083404;28;20470;-78
2022/12/30 07:54:18;;;;;;;7.73;4.60;;;4.60;99.90;;;4.37;96.55;98019.94;5072465;28;20486;-76
2022/12/30 07:56:46;;;;;;;5.70;4.50;;;4.70;99.90;;;4.41;95.77;98023.09;5069407;28;20468;-75
2022/12/30 07:59:13;;;;;;;8.33;4.60;;;4.70;99.90;;;4.46;95.02;98026.06;5071213;28;20898;-77
2022/12/30 08:01:40;;;;;;;8.10;5.30;;;4.70;99.90;;;4.42;96.23;98031.97;5070670;28;21266;-75
2022/12/30 08:04:08;;;;;;;7.37;6.03;;;4.80;99.90;;;4.42;96.05;98030.13;5075824;28;20551;-76
2022/12/30 08:06:36;;;;;;;6.37;5.27;;;4.70;99.90;;;4.40;96.39;98018.75;5074882;28;20455;-75
2022/12/30 08:09:04;;;;;;;5.43;4.73;;;4.70;99.90;;;4.48;95.39;98021.41;5061812;28;20475;-75
2022/12/30 08:11:32;;;;;;;6.20;5.60;;;4.80;99.90;;;4.48;95.88;98018.72;5078533;28;20464;-77
2022/12/30 08:14:00;;;;;;;6.00;5.00;;;4.80;99.90;;;4.41;96.18;98014.25;5072987;28;20646;-76
2022/12/30 08:16:27;;;;;;;6.50;5.27;;;4.80;99.90;;;4.46;95.76;98001.19;5064708;28;22051;-76
2022/12/30 08:18:54;;;;;;;7.30;4.60;;;4.90;99.90;;;4.66;95.45;98022.97;5052161;28;20463;-78
2022/12/30 08:21:23;;;;;;;7.87;5.63;;;4.90;99.90;;;4.60;94.54;98027.19;5074920;28;20459;-75
2022/12/30 08:23:51;;;;;;;7.80;6.50;;;4.90;99.90;;;4.53;95.96;98024.38;5075170;28;20519;-73
2022/12/30 08:26:22;;;;;;;5.77;5.20;;;4.90;99.90;;;4.62;95.04;98032.34;5075166;28;20455;-74
2022/12/30 08:28:51;;;;;;;8.23;5.73;;;4.90;99.90;;;4.62;94.70;98026.97;5074056;28;20464;-74
2022/12/30 08:31:21;;;;;;;5.93;5.20;;;4.90;99.90;;;4.68;95.33;98032.47;5074887;28;20456;-74
2022/12/30 08:33:48;;;;;;;5.50;5.00;;;4.90;99.90;;;4.66;94.63;98028.31;5071898;28;21346;-74
2022/12/30 08:36:19;;;;;;;5.73;4.57;;;5.00;99.90;;;4.74;95.11;98036.28;5069114;28;20457;-74
2022/12/30 08:38:50;;;;;;;6.67;4.67;;;5.00;99.90;;;4.76;95.11;98034.25;5060462;28;20452;-74
2022/12/30 08:41:22;;;;;;;5.93;4.53;;;5.00;99.90;;;4.73;94.48;98031.13;5072492;28;20539;-75
2022/12/30 08:43:51;;;;;;;6.10;5.10;;;5.10;99.90;;;4.84;94.29;98032.53;5078224;28;20470;-75
2022/12/30 08:46:20;;;;;;;5.23;4.33;;;5.10;99.90;;;4.69;94.00;98011.91;5073441;28;20447;-74
2022/12/30 08:48:48;;;;;;;8.97;5.00;;;5.20;99.90;;;4.90;94.52;98034.50;5074931;28;21074;-76
2022/12/30 08:51:15;;;;;;;6.30;5.00;;;5.20;99.90;;;4.91;93.79;98031.66;5071174;28;20540;-77
2022/12/30 08:53:43;;;;;;;5.63;4.83;;;5.20;99.90;;;5.01;93.30;98035.94;5056339;28;20487;-78
2022/12/30 08:56:16;;;;;;;7.20;4.77;;;5.30;99.90;;;4.89;94.00;98028.31;5054893;28;20474;-79
2022/12/30 08:58:46;;;;;;;7.33;4.23;;;5.30;99.90;;;5.03;93.61;98029.38;5075763;28;20520;-78
2022/12/30 09:01:16;;;;;;;5.80;4.70;;;5.30;99.90;;;5.18;92.88;98021.41;5072343;28;20463;-77
2022/12/30 09:03:45;;;;;;;5.40;4.37;;;5.50;99.90;;;4.85;92.40;97978.00;5060621;28;20443;-76
2022/12/30 09:06:15;;;;;;;4.47;4.07;;;5.50;99.90;;;5.26;92.23;98023.19;5071511;28;20457;-77
2022/12/30 09:08:43;;;;;;;7.10;4.97;;;5.50;99.90;;;5.33;92.24;98007.22;5069633;28;20480;-79
2022/12/30 09:11:14;;;;;;;5.00;4.50;;;5.60;99.90;;;5.35;91.80;98008.69;5056113;28;20834;-78
2022/12/30 09:13:42;;;;;;;4.73;4.33;;;5.70;99.90;;;5.27;91.43;97998.06;5056938;28;20452;-76
2022/12/30 09:16:14;;;;;;;5.30;4.80;;;5.70;99.90;;;5.47;90.68;98008.25;5070256;28;20543;-78
2022/12/30 09:18:41;;;;;;;5.20;4.70;;;5.80;99.90;;;5.58;90.73;98010.47;5056203;28;20464;-78
2022/12/30 09:21:08;;;;;;;5.23;4.77;;;5.80;99.90;;;5.62;90.01;98019.00;5051424;28;20491;-77
2022/12/30 09:23:36;;;;;;;4.93;4.43;;;5.80;99.90;;;5.32;90.39;98011.72;5070814;28;20560;-78
2022/12/30 09:26:04;;;;;;;5.27;4.13;;;5.80;99.90;;;5.60;90.57;98013.81;5070629;28;20474;-75
2022/12/30 09:28:31;;;;;;;5.20;4.23;;;5.90;99.90;;;5.61;89.50;98015.47;5073565;28;20455;-77
2022/12/30 09:30:59;;;;;;;6.70;6.07;;;6.00;99.90;;;5.74;89.51;98025.53;5072393;28;20467;-77
2022/12/30 09:33:28;;;;;;;4.40;3.77;;;6.00;99.90;;;5.72;89.56;98022.22;5072416;28;21201;-76
2022/12/30 09:35:55;;;;;;;4.67;4.27;;;6.10;99.90;;;5.75;89.70;98034.44;5073712;28;20464;-74
2022/12/30 09:38:22;;;;;;;3.80;3.50;;;6.10;99.90;;;5.76;88.89;98011.97;5070472;28;20480;-77
2022/12/30 09:40:56;;;;;;;6.03;4.37;;;6.10;99.00;;;5.65;88.68;97979.22;5056248;28;20452;-77
2022/12/30 09:43:33;;;;;;;4.67;4.27;;;6.20;99.80;;;5.68;88.42;97972.66;5070578;28;20444;-84
2022/12/30 09:46:26;;;;;;;4.40;4.00;;;6.20;98.80;;;6.03;87.99;98020.41;5076184;28;20513;-73
2022/12/30 09:49:01;;;;;;;5.33;4.53;;;6.30;98.00;;;6.04;87.54;98019.38;5057623;28;21192;-75
2022/12/30 09:51:36;;;;;;;6.10;4.73;;;6.30;97.30;;;6.24;87.47;98015.09;5072053;28;20861;-76
2022/12/30 09:54:07;;;;;;;6.07;4.80;;;6.40;97.60;;;6.13;87.27;98009.38;5074945;28;20452;-77
2022/12/30 09:56:37;;;;;;;4.70;4.30;;;6.40;96.60;;;6.13;87.12;98001.34;5070743;28;20557;-81
2022/12/30 09:59:13;;;;;;;4.60;4.20;;;6.40;96.30;;;6.29;86.60;97992.22;5081174;28;20464;-78
2022/12/30 10:01:44;;;;;;;4.47;4.07;;;6.50;96.40;;;6.16;86.84;97992.91;5057470;28;20816;-77
2022/12/30 10:04:17;;;;;;;5.23;4.37;;;6.50;95.20;;;6.19;86.70;97982.66;5058257;28;20939;-79
2022/12/30 10:06:54;;;;;;;4.87;4.43;;;6.50;95.20;;;6.41;86.60;97966.56;5072123;28;20545;-77
2022/12/30 10:09:43;;;;;;;4.53;4.13;;;6.60;95.90;;;6.26;86.80;97960.41;5069799;28;20483;-77
2022/12/30 10:12:40;;;;;;;8.00;4.63;;;6.60;94.90;;;6.50;86.19;97960.06;5068538;28;20886;-73
2022/12/30 10:15:23;;;;;;;5.30;4.40;;;6.70;95.30;;;6.56;85.10;97949.59;5048110;28;20796;-73
2022/12/30 10:18:22;;;;;;;5.90;4.20;;;6.80;93.80;;;6.29;85.46;97925.16;5073976;28;21113;-71
2022/12/30 10:21:05;;;;;;;4.60;4.20;;;6.80;94.00;;;6.52;85.56;97941.91;5082638;28;20514;-75
2022/12/30 10:23:52;;;;;;;4.27;3.87;;;6.80;94.10;;;6.67;85.13;97943.72;5068451;28;21412;-71
2022/12/30 10:26:24;;;;;;;4.40;3.87;;;6.90;94.00;;;6.57;84.97;97932.44;5073247;28;20943;-74
2022/12/30 10:28:58;;;;;;;4.63;4.10;;;6.90;93.50;;;6.73;84.20;97934.88;5055555;28;20460;-74
2022/12/30 10:31:28;;;;;;;4.10;3.70;;;7.00;93.30;;;6.45;84.11;97881.16;5068893;28;20492;-74
2022/12/30 10:34:05;;;;;;;4.07;3.77;;;7.10;92.60;;;6.75;84.36;97930.16;5073745;28;20921;-72
2022/12/30 10:36:41;;;;;;;4.60;4.20;;;7.10;92.60;;;6.84;83.69;97924.66;5067921;28;20503;-71
2022/12/30 10:39:16;;;;;;;4.10;3.70;;;7.10;92.50;;;6.71;83.15;97911.94;5074705;28;20962;-72
2022/12/30 10:41:58;;;;;;;8.13;3.60;;;7.10;92.20;;;6.70;83.22;97902.22;5053902;28;22139;-72
2022/12/30 10:44:30;;;;;;;2.87;2.57;;;7.10;92.10;;;6.72;82.93;97898.31;5070599;28;20468;-71
2022/12/30 10:47:27;;;;;;;3.40;3.00;;;7.10;91.70;;;6.66;82.84;97909.84;5070922;28;20478;-72
2022/12/30 10:50:14;;;;;;;3.10;2.80;;;7.00;91.70;;;6.49;83.58;97883.25;5069297;28;20752;-73
2022/12/30 10:52:43;;;;;;;3.20;2.90;;;7.00;92.30;;;6.67;83.71;97895.38;5044685;28;20483;-71
2022/12/30 10:55:23;;;;;;;3.23;2.90;;;7.00;92.30;;;6.80;83.76;97876.69;5071910;28;20998;-73
2022/12/30 10:57:56;;;;;;;5.57;3.10;;;7.10;92.70;;;7.30;81.78;97889.22;5066132;28;20463;-70
2022/12/30 11:00:25;;;;;;;3.30;2.77;;;7.50;91.70;;;7.27;82.17;97878.88;5070417;28;20482;-74
2022/12/30 11:03:00;;;;;;;3.07;2.87;;;7.60;90.90;;;7.33;81.11;97880.75;5071195;28;20919;-73
2022/12/30 11:05:33;;;;;;;2.50;2.30;;;7.70;90.40;;;7.28;81.47;97875.16;5055399;28;20514;-72
2022/12/30 11:08:04;;;;;;;6.10;2.80;;;7.60;90.40;;;7.55;80.86;97869.94;5048208;28;20567;-72
2022/12/30 11:10:32;;;;;;;2.60;2.40;;;7.70;90.80;;;7.29;80.74;97851.81;5056431;28;20505;-74
2022/12/30 11:16:00;;;;;;;2.77;2.43;;;7.70;90.10;;;7.36;80.73;97861.56;5054712;28;20609;-73
2022/12/30 11:18:30;;;;;;;2.97;2.70;;;7.60;90.20;;;7.22;80.82;97860.66;5067532;28;20513;-72
2022/12/30 11:20:59;;;;;;;2.20;2.00;;;7.60;90.20;;;7.02;81.72;97871.28;5071403;28;20506;-74
2022/12/30 11:23:33;;;;;;;2.50;2.22;;;7.40;90.40;;;7.02;80.81;97863.22;5068555;28;20463;-75
2022/12/30 11:26:02;;;;;;;2.30;2.10;;;7.40;90.00;;;6.95;80.47;97847.03;5054941;28;20319;-75
2022/12/30 11:28:35;;;;;;;2.00;1.90;;;7.40;89.90;;;7.07;80.04;97850.03;5048187;28;20510;-75
2022/12/30 11:31:07;;;;;;;2.60;2.00;;;7.50;89.10;;;7.30;80.05;97850.78;5071788;28;20480;-73
2022/12/30 11:33:37;;;;;;;2.30;1.83;;;7.60;89.40;;;7.15;78.90;97842.84;5071732;28;20530;-74
2022/12/30 11:36:20;;;;;;;2.20;2.00;;;7.60;87.90;;;7.07;79.56;97841.13;5074382;28;20443;-74
2022/12/30 11:38:50;;;;;;;2.60;2.13;;;7.50;88.20;;;7.33;78.73;97848.50;5058513;28;20445;-74